Time;durP1;ratioP1;P1;durP2;ratioP2;P2;SDS_P1;SDS_P2;PMS_P1;PMS_P2;Temp;Humidity;BMP_temperature;BMP_pressure;BME280_temperature;BME280_humidity;BME280_pressure;Samples;Min_cycle;Max_cycle;Signal;HPM_P1;HPM_P2
2021/11/30 00:00:05;;;;;;;13.60;12.30;;;;;;;;;;4991060;28;25782;-62
2021/11/30 00:02:30;;;;;;;11.90;10.80;;;;;;;;;;4978159;28;24420;-61
2021/11/30 00:04:56;;;;;;;11.63;10.53;;;;;;;;;;4974532;28;24425;-61
2021/11/30 00:07:21;;;;;;;11.60;10.50;;;;;;;;;;4982907;28;24488;-61
2021/11/30 00:12:14;;;;;;;11.32;10.32;;;;;;;;;;4983000;28;24425;-61
2021/11/30 00:14:39;;;;;;;11.23;10.23;;;;;;;;;;4981394;28;24513;-61
2021/11/30 00:17:05;;;;;;;11.60;10.50;;;;;;;;;;4986668;28;24856;-61
2021/11/30 00:19:30;;;;;;;11.80;10.70;;;;;;;;;;4980833;28;24462;-59
2021/11/30 00:21:56;;;;;;;11.47;10.37;;;;;;;;;;4981630;28;24764;-62
2021/11/30 00:24:23;;;;;;;10.33;9.33;;;;;;;;;;4987157;28;24420;-61
2021/11/30 00:26:48;;;;;;;10.60;9.60;;;;;;;;;;4983816;28;25098;-60
2021/11/30 00:29:14;;;;;;;11.10;10.10;;;;;;;;;;4980656;28;24444;-60
2021/11/30 00:31:39;;;;;;;10.32;9.40;;;;;;;;;;4987110;28;25086;-60
2021/11/30 00:34:04;;;;;;;11.17;10.07;;;;;;;;;;4999190;28;24471;-59
2021/11/30 00:36:29;;;;;;;10.52;9.52;;;;;;;;;;4988772;28;24417;-59
2021/11/30 00:38:54;;;;;;;11.23;10.23;;;;;;;;;;4982258;28;24416;-60
2021/11/30 00:41:19;;;;;;;10.60;9.60;;;;;;;;;;4981614;28;24428;-60
2021/11/30 00:43:45;;;;;;;10.70;9.70;;;;;;;;;;4981697;28;24788;-60
2021/11/30 00:46:17;;;;;;;10.32;9.43;;;;;;;;;;4988648;28;24420;-60
2021/11/30 00:48:42;;;;;;;10.17;9.27;;;;;;;;;;4983104;28;24773;-61
2021/11/30 00:51:10;;;;;;;10.00;9.10;;;;;;;;;;4984544;28;24474;-60
2021/11/30 00:53:36;;;;;;;10.57;9.57;;;;;;;;;;4979263;28;24975;-60
2021/11/30 00:56:01;;;;;;;10.15;9.25;;;;;;;;;;4980589;28;24455;-61
2021/11/30 00:58:26;;;;;;;10.13;9.13;;;;;;;;;;4992032;28;24855;-60
2021/11/30 01:00:52;;;;;;;9.97;9.07;;;;;;;;;;4986464;28;25121;-60
2021/11/30 01:03:17;;;;;;;9.77;8.87;;;;;;;;;;4988333;28;24982;-60
2021/11/30 01:05:42;;;;;;;10.70;9.70;;;;;;;;;;4980863;28;24779;-60
2021/11/30 01:08:07;;;;;;;10.50;9.50;;;;;;;;;;4988074;28;24985;-60
2021/11/30 01:10:33;;;;;;;11.87;10.67;;;;;;;;;;4984512;28;25004;-60
2021/11/30 01:12:58;;;;;;;11.02;10.02;;;;;;;;;;4984383;28;24491;-60
2021/11/30 01:15:24;;;;;;;10.43;9.43;;;;;;;;;;4986559;28;24503;-59
2021/11/30 01:17:49;;;;;;;10.73;9.73;;;;;;;;;;4988758;28;24634;-63
2021/11/30 01:20:15;;;;;;;11.00;9.90;;;;;;;;;;4986582;28;24493;-61
2021/11/30 01:22:41;;;;;;;11.20;10.10;;;;;;;;;;4989387;28;24551;-60
2021/11/30 01:25:07;;;;;;;10.77;9.67;;;;;;;;;;4986412;28;24413;-59
2021/11/30 01:27:32;;;;;;;10.30;9.30;;;;;;;;;;4994066;28;24752;-60
2021/11/30 01:29:57;;;;;;;10.88;9.88;;;;;;;;;;4993851;28;24516;-59
2021/11/30 01:32:22;;;;;;;11.77;10.68;;;;;;;;;;4982272;28;24420;-59
2021/11/30 01:34:47;;;;;;;11.80;10.60;;;;;;;;;;4982892;28;25033;-60
2021/11/30 01:37:15;;;;;;;10.30;9.30;;;;;;;;;;4984822;28;24488;-59
2021/11/30 01:39:41;;;;;;;10.05;9.05;;;;;;;;;;4988732;28;24417;-59
2021/11/30 01:42:07;;;;;;;10.75;9.75;;;;;;;;;;4981086;28;24462;-58
2021/11/30 01:44:41;;;;;;;10.48;9.48;;;;;;;;;;4981755;28;24436;-59
2021/11/30 01:47:10;;;;;;;10.70;9.60;;;;;;;;;;4996311;28;24439;-59
2021/11/30 01:49:35;;;;;;;9.98;9.07;;;;;;;;;;4972025;28;24498;-59
2021/11/30 01:52:02;;;;;;;10.30;9.30;;;;;;;;;;4997929;28;24534;-60
2021/11/30 01:54:27;;;;;;;10.10;9.10;;;;;;;;;;4988174;28;24495;-59
2021/11/30 01:56:52;;;;;;;10.33;9.33;;;;;;;;;;4984118;28;24880;-60
2021/11/30 01:59:17;;;;;;;9.87;8.87;;;;;;;;;;4981441;28;24413;-60
2021/11/30 02:01:42;;;;;;;9.50;8.60;;;;;;;;;;4993279;28;24525;-60
2021/11/30 02:04:08;;;;;;;10.60;9.30;;;;;;;;;;4983374;28;24983;-61
2021/11/30 02:06:33;;;;;;;9.60;8.70;;;;;;;;;;4988317;28;25004;-60
2021/11/30 02:08:58;;;;;;;10.27;9.23;;;;;;;;;;4984177;28;24456;-60
2021/11/30 02:11:25;;;;;;;10.05;9.05;;;;;;;;;;4986376;28;24931;-60
2021/11/30 02:13:50;;;;;;;9.60;8.70;;;;;;;;;;4991967;28;24429;-59
2021/11/30 02:16:18;;;;;;;9.60;8.70;;;;;;;;;;4985175;28;24421;-59
2021/11/30 02:18:44;;;;;;;9.40;8.50;;;;;;;;;;4984492;28;24519;-59
2021/11/30 02:21:10;;;;;;;8.50;7.70;;;;;;;;;;4984582;28;24441;-60
2021/11/30 02:23:40;;;;;;;9.30;8.40;;;;;;;;;;4984716;28;24432;-60
2021/11/30 02:26:09;;;;;;;8.60;7.80;;;;;;;;;;4985257;28;24416;-60
2021/11/30 02:28:35;;;;;;;8.63;7.82;;;;;;;;;;4977225;28;24495;-59
2021/11/30 02:31:00;;;;;;;8.85;8.02;;;;;;;;;;4985655;28;25034;-60
2021/11/30 02:33:25;;;;;;;8.13;7.33;;;;;;;;;;4997516;28;24432;-60
2021/11/30 02:35:52;;;;;;;8.13;7.43;;;;;;;;;;4984478;28;24479;-60
2021/11/30 02:38:17;;;;;;;8.30;7.50;;;;;;;;;;4985031;28;24583;-59
2021/11/30 02:40:42;;;;;;;8.07;7.30;;;;;;;;;;4982576;28;24421;-60
2021/11/30 02:43:07;;;;;;;8.50;7.63;;;;;;;;;;4995723;28;25226;-60
2021/11/30 02:45:32;;;;;;;7.72;7.03;;;;;;;;;;4986400;28;24978;-59
2021/11/30 02:47:57;;;;;;;7.47;6.77;;;;;;;;;;4980926;28;24452;-60
2021/11/30 02:50:23;;;;;;;7.50;6.87;;;;;;;;;;4986631;28;24475;-59
2021/11/30 02:52:48;;;;;;;7.70;7.00;;;;;;;;;;4983815;28;24851;-60
2021/11/30 02:55:14;;;;;;;7.07;6.47;;;;;;;;;;4993575;28;24437;-60
2021/11/30 02:57:39;;;;;;;6.63;6.03;;;;;;;;;;4982245;28;24405;-59
2021/11/30 03:00:06;;;;;;;6.80;6.20;;;;;;;;;;4980416;28;24409;-59
2021/11/30 03:02:32;;;;;;;7.00;6.40;;;;;;;;;;4989308;28;24404;-60
2021/11/30 03:04:58;;;;;;;6.90;6.30;;;;;;;;;;4997458;28;24421;-59
2021/11/30 03:07:28;;;;;;;6.80;6.20;;;;;;;;;;4990299;28;24413;-59
2021/11/30 03:09:53;;;;;;;7.40;6.70;;;;;;;;;;4984770;28;24963;-59
2021/11/30 03:12:19;;;;;;;6.90;6.30;;;;;;;;;;4984486;28;24440;-59
2021/11/30 03:14:45;;;;;;;7.10;6.50;;;;;;;;;;4982081;28;24787;-59
2021/11/30 03:17:10;;;;;;;7.00;6.40;;;;;;;;;;4987509;28;24785;-59
2021/11/30 03:19:35;;;;;;;7.00;6.40;;;;;;;;;;4980424;28;24424;-59
2021/11/30 03:22:01;;;;;;;7.10;6.50;;;;;;;;;;4981244;28;24556;-59
2021/11/30 03:24:27;;;;;;;7.13;6.43;;;;;;;;;;4983404;28;24428;-59
2021/11/30 03:26:52;;;;;;;7.50;6.80;;;;;;;;;;4993031;28;24899;-60
2021/11/30 03:29:17;;;;;;;7.20;6.60;;;;;;;;;;4986351;28;24416;-59
2021/11/30 03:34:09;;;;;;;6.77;6.17;;;;;;;;;;4991335;28;24439;-59
2021/11/30 03:36:35;;;;;;;7.53;6.50;;;;;;;;;;4979177;28;24446;-60
2021/11/30 03:39:03;;;;;;;7.10;6.40;;;;;;;;;;4979711;28;24780;-59
2021/11/30 03:41:31;;;;;;;7.28;6.57;;;;;;;;;;4991824;28;24404;-60
2021/11/30 03:43:56;;;;;;;6.55;5.95;;;;;;;;;;4997853;28;24996;-59
2021/11/30 03:46:22;;;;;;;6.90;6.30;;;;;;;;;;4983122;28;24569;-60
2021/11/30 03:48:47;;;;;;;6.77;6.17;;;;;;;;;;4991476;28;24423;-60
2021/11/30 03:51:12;;;;;;;6.25;5.70;;;;;;;;;;4983120;28;24413;-60
2021/11/30 03:53:37;;;;;;;6.00;5.50;;;;;;;;;;4986954;28;24620;-60
2021/11/30 03:56:03;;;;;;;6.90;6.30;;;;;;;;;;4984135;28;24439;-59
2021/11/30 03:58:28;;;;;;;6.27;5.77;;;;;;;;;;4989459;28;24543;-59
2021/11/30 04:00:53;;;;;;;6.53;5.93;;;;;;;;;;4984240;28;24456;-62
2021/11/30 04:03:18;;;;;;;6.70;6.10;;;;;;;;;;4984002;28;24417;-59
2021/11/30 04:05:43;;;;;;;5.90;5.40;;;;;;;;;;4981591;28;25260;-59
2021/11/30 04:08:09;;;;;;;5.88;5.32;;;;;;;;;;4983002;28;24421;-59
2021/11/30 04:10:34;;;;;;;6.50;5.97;;;;;;;;;;4981434;28;24449;-59
2021/11/30 04:12:59;;;;;;;5.80;5.30;;;;;;;;;;4983762;28;24464;-59
2021/11/30 04:15:24;;;;;;;5.70;5.20;;;;;;;;;;4985411;28;24424;-59
2021/11/30 04:17:50;;;;;;;5.43;4.93;;;;;;;;;;4984322;28;24875;-60
2021/11/30 04:20:15;;;;;;;5.75;5.25;;;;;;;;;;4980960;28;24958;-60
2021/11/30 04:22:40;;;;;;;5.10;4.70;;;;;;;;;;4983980;28;25051;-60
2021/11/30 04:25:06;;;;;;;4.97;4.57;;;;;;;;;;4984771;28;24424;-59
2021/11/30 04:27:32;;;;;;;5.47;5.05;;;;;;;;;;4983721;28;25038;-60
2021/11/30 04:29:57;;;;;;;5.50;5.00;;;;;;;;;;4986078;28;24515;-59
2021/11/30 04:32:22;;;;;;;5.50;5.10;;;;;;;;;;4985302;28;24425;-59
2021/11/30 04:34:48;;;;;;;5.40;5.00;;;;;;;;;;4980903;28;24476;-59
2021/11/30 04:37:13;;;;;;;4.50;4.20;;;;;;;;;;4985848;28;24975;-60
2021/11/30 04:39:38;;;;;;;4.70;4.30;;;;;;;;;;4980623;28;24455;-59
2021/11/30 04:42:03;;;;;;;4.93;4.53;;;;;;;;;;4990469;28;25014;-60
2021/11/30 04:44:31;;;;;;;5.90;5.40;;;;;;;;;;4987311;28;25290;-61
2021/11/30 04:47:01;;;;;;;5.45;5.05;;;;;;;;;;4981330;28;24435;-60
2021/11/30 04:51:57;;;;;;;5.43;4.93;;;;;;;;;;4991337;28;25017;-59
2021/11/30 04:54:23;;;;;;;5.20;4.80;;;;;;;;;;4990926;28;24488;-60
2021/11/30 04:56:49;;;;;;;5.53;5.03;;;;;;;;;;4997790;28;24432;-60
2021/11/30 04:59:17;;;;;;;5.78;5.28;;;;;;;;;;4989184;28;25390;-59
2021/11/30 05:01:42;;;;;;;5.78;5.28;;;;;;;;;;4985840;28;24425;-59
2021/11/30 05:04:07;;;;;;;5.65;5.15;;;;;;;;;;4991464;28;24417;-59
2021/11/30 05:06:32;;;;;;;6.07;5.57;;;;;;;;;;4996461;28;24425;-60
2021/11/30 05:09:01;;;;;;;6.00;5.50;;;;;;;;;;4984641;28;24420;-60
2021/11/30 05:11:27;;;;;;;6.43;5.82;;;;;;;;;;4983010;28;24420;-60
2021/11/30 05:13:52;;;;;;;5.73;5.23;;;;;;;;;;4984646;28;24445;-60
2021/11/30 05:16:17;;;;;;;6.10;5.60;;;;;;;;;;4987109;28;24428;-60
2021/11/30 05:18:42;;;;;;;5.97;5.47;;;;;;;;;;4996132;28;24412;-59
2021/11/30 05:21:08;;;;;;;6.70;6.10;;;;;;;;;;4983529;28;24502;-60
2021/11/30 05:23:35;;;;;;;7.77;7.10;;;;;;;;;;4987158;28;24644;-60
2021/11/30 05:26:02;;;;;;;7.30;6.70;;;;;;;;;;4990940;28;24428;-59
2021/11/30 05:28:28;;;;;;;6.50;5.90;;;;;;;;;;4987082;28;24433;-60
2021/11/30 05:30:53;;;;;;;8.07;7.38;;;;;;;;;;4981741;28;25198;-60
2021/11/30 05:33:18;;;;;;;7.40;6.80;;;;;;;;;;4988090;28;24534;-60
2021/11/30 05:35:43;;;;;;;8.20;7.50;;;;;;;;;;4997639;28;24483;-61
2021/11/30 05:38:09;;;;;;;8.77;7.97;;;;;;;;;;4985874;28;24420;-60
2021/11/30 05:40:34;;;;;;;8.30;7.50;;;;;;;;;;4990712;28;24494;-60
2021/11/30 05:42:59;;;;;;;8.15;7.45;;;;;;;;;;4998448;28;24424;-60
2021/11/30 05:45:24;;;;;;;9.83;8.40;;;;;;;;;;4993634;28;24959;-60
2021/11/30 05:47:49;;;;;;;9.33;8.43;;;;;;;;;;4984858;28;24420;-60
2021/11/30 05:50:15;;;;;;;7.73;7.03;;;;;;;;;;4987362;28;24469;-60
2021/11/30 05:52:40;;;;;;;8.40;7.60;;;;;;;;;;4986287;28;24432;-60
2021/11/30 05:55:06;;;;;;;8.35;7.63;;;;;;;;;;4983639;28;24456;-60
2021/11/30 05:57:33;;;;;;;8.93;8.02;;;;;;;;;;4982918;28;24508;-60
2021/11/30 06:00:01;;;;;;;7.60;6.90;;;;;;;;;;4986899;28;24417;-60
2021/11/30 06:02:29;;;;;;;7.77;7.07;;;;;;;;;;4986938;28;24417;-61
2021/11/30 06:04:54;;;;;;;8.40;7.70;;;;;;;;;;4989557;28;25018;-60
2021/11/30 06:07:19;;;;;;;9.07;8.18;;;;;;;;;;4984473;28;24479;-60
2021/11/30 06:09:45;;;;;;;8.02;7.32;;;;;;;;;;4987934;28;24824;-60
2021/11/30 06:12:10;;;;;;;7.80;7.10;;;;;;;;;;4987909;28;24411;-61
2021/11/30 06:14:35;;;;;;;7.70;7.00;;;;;;;;;;4988794;28;24499;-60
2021/11/30 06:17:01;;;;;;;7.50;6.80;;;;;;;;;;4982289;28;24512;-60
2021/11/30 06:19:26;;;;;;;7.63;6.93;;;;;;;;;;4976400;28;24447;-60
2021/11/30 06:21:51;;;;;;;7.85;7.10;;;;;;;;;;4985812;28;24423;-60
2021/11/30 06:24:17;;;;;;;7.80;7.10;;;;;;;;;;4988288;28;24405;-60
2021/11/30 06:26:43;;;;;;;7.93;7.22;;;;;;;;;;4989235;28;24955;-61
2021/11/30 06:29:08;;;;;;;7.15;6.45;;;;;;;;;;4978657;28;24519;-60
2021/11/30 06:31:34;;;;;;;7.27;6.57;;;;;;;;;;4980656;28;24444;-61
2021/11/30 06:33:59;;;;;;;7.40;6.70;;;;;;;;;;4981939;28;24439;-61
2021/11/30 06:36:24;;;;;;;6.50;6.00;;;;;;;;;;4986336;28;25203;-61
2021/11/30 06:38:49;;;;;;;7.10;6.50;;;;;;;;;;4980998;28;24409;-61
2021/11/30 06:41:15;;;;;;;6.60;6.00;;;;;;;;;;4991544;28;24416;-60
2021/11/30 06:43:41;;;;;;;6.20;5.60;;;;;;;;;;4979320;28;25256;-60
2021/11/30 06:46:06;;;;;;;6.03;5.53;;;;;;;;;;4998536;28;25010;-60
2021/11/30 06:48:31;;;;;;;5.90;5.30;;;;;;;;;;4991071;28;24483;-60
2021/11/30 06:50:56;;;;;;;5.63;5.13;;;;;;;;;;4985581;28;25358;-61
2021/11/30 06:53:21;;;;;;;4.70;4.30;;;;;;;;;;4975693;28;24448;-60
2021/11/30 06:55:47;;;;;;;4.70;4.30;;;;;;;;;;4978400;28;24437;-60
2021/11/30 06:58:12;;;;;;;5.00;4.60;;;;;;;;;;4980627;28;24448;-60
2021/11/30 07:00:37;;;;;;;4.35;3.95;;;;;;;;;;4984439;28;24491;-61
2021/11/30 07:03:02;;;;;;;3.90;3.60;;;;;;;;;;4987483;28;24423;-60
2021/11/30 07:05:38;;;;;;;4.07;3.77;;;;;;;;;;4985827;28;24520;-61
2021/11/30 07:10:41;;;;;;;3.60;3.30;;;;;;;;;;4985678;28;24428;-60
2021/11/30 07:15:42;;;;;;;3.50;3.30;;;;;;;;;;4987804;28;24421;-60
2021/11/30 07:18:08;;;;;;;3.90;3.60;;;;;;;;;;4990011;28;25336;-61
2021/11/30 07:20:33;;;;;;;3.30;3.10;;;;;;;;;;4981636;28;24480;-60
2021/11/30 07:22:58;;;;;;;3.20;2.83;;;;;;;;;;4984735;28;24396;-60
2021/11/30 07:25:24;;;;;;;3.40;3.20;;;;;;;;;;4984922;28;24412;-60
2021/11/30 07:27:49;;;;;;;2.90;2.70;;;;;;;;;;4982575;28;24424;-60
2021/11/30 07:30:14;;;;;;;2.87;2.67;;;;;;;;;;4980074;28;24425;-60
2021/11/30 07:32:39;;;;;;;3.08;2.78;;;;;;;;;;4979246;28;24408;-60
2021/11/30 07:35:06;;;;;;;2.70;2.50;;;;;;;;;;4984079;28;24405;-60
2021/11/30 07:37:31;;;;;;;2.92;2.72;;;;;;;;;;4984982;28;24809;-60
2021/11/30 07:39:57;;;;;;;2.40;2.20;;;;;;;;;;4980923;28;24520;-60
2021/11/30 07:42:24;;;;;;;2.80;2.60;;;;;;;;;;4985058;28;25156;-60
2021/11/30 07:44:49;;;;;;;2.50;2.30;;;;;;;;;;4985133;28;24437;-61
2021/11/30 07:47:14;;;;;;;3.07;2.53;;;;;;;;;;4998282;28;24459;-60
2021/11/30 07:49:39;;;;;;;2.43;2.23;;;;;;;;;;4989637;28;24479;-60
2021/11/30 07:52:05;;;;;;;2.10;1.90;;;;;;;;;;4983948;28;24775;-64
2021/11/30 07:54:30;;;;;;;2.60;2.40;;;;;;;;;;4992404;28;24429;-61
2021/11/30 07:56:56;;;;;;;2.23;2.07;;;;;;;;;;4979020;28;24432;-61
2021/11/30 07:59:21;;;;;;;2.40;2.20;;;;;;;;;;4981186;28;24482;-60
2021/11/30 08:01:46;;;;;;;2.50;2.30;;;;;;;;;;4981768;28;24441;-61
2021/11/30 08:04:11;;;;;;;2.40;2.20;;;;;;;;;;4980763;28;24903;-61
2021/11/30 08:06:36;;;;;;;2.38;2.20;;;;;;;;;;4979962;28;24471;-61
2021/11/30 08:09:02;;;;;;;2.40;2.30;;;;;;;;;;4980111;28;24513;-60
2021/11/30 08:11:27;;;;;;;2.20;2.00;;;;;;;;;;4980458;28;24417;-60
2021/11/30 08:13:52;;;;;;;2.40;2.20;;;;;;;;;;4982308;28;24467;-61
2021/11/30 08:16:17;;;;;;;2.10;2.00;;;;;;;;;;4983595;28;25243;-60
2021/11/30 08:18:42;;;;;;;1.83;1.73;;;;;;;;;;4979846;28;24463;-60
2021/11/30 08:21:07;;;;;;;1.90;1.80;;;;;;;;;;4986580;28;24511;-59
2021/11/30 08:23:33;;;;;;;1.80;1.70;;;;;;;;;;4984099;28;24410;-59
2021/11/30 08:25:58;;;;;;;1.85;1.70;;;;;;;;;;4973253;28;24522;-60
2021/11/30 08:28:24;;;;;;;2.00;1.90;;;;;;;;;;4980705;28;24998;-62
2021/11/30 08:30:49;;;;;;;1.70;1.60;;;;;;;;;;4979276;28;24860;-59
2021/11/30 08:33:15;;;;;;;1.87;1.77;;;;;;;;;;4978422;28;24552;-62
2021/11/30 08:35:40;;;;;;;1.80;1.70;;;;;;;;;;4979457;28;24428;-59
2021/11/30 08:38:05;;;;;;;1.77;1.67;;;;;;;;;;4983754;28;24472;-59
2021/11/30 08:40:30;;;;;;;1.50;1.40;;;;;;;;;;4986921;28;24772;-59
2021/11/30 08:42:55;;;;;;;2.13;1.93;;;;;;;;;;4978159;28;24994;-59
2021/11/30 08:45:21;;;;;;;2.00;1.90;;;;;;;;;;4975353;28;24444;-59
2021/11/30 08:47:46;;;;;;;1.53;1.43;;;;;;;;;;4980524;28;24884;-59
2021/11/30 08:50:13;;;;;;;1.60;1.50;;;;;;;;;;4980328;28;24421;-59
2021/11/30 08:52:38;;;;;;;5.63;5.10;;;;;;;;;;4978003;28;24432;-61
2021/11/30 08:55:04;;;;;;;2.73;2.53;;;;;;;;;;4982535;28;24412;-62
2021/11/30 08:57:29;;;;;;;3.40;2.60;;;;;;;;;;4976932;28;24981;-59
2021/11/30 08:59:55;;;;;;;2.17;2.08;;;;;;;;;;4985408;28;24510;-60
2021/11/30 09:02:20;;;;;;;3.70;3.40;;;;;;;;;;4986372;28;24914;-59
2021/11/30 09:04:46;;;;;;;2.80;2.10;;;;;;;;;;4998674;28;24470;-59
2021/11/30 09:07:11;;;;;;;1.27;1.23;;;;;;;;;;4985687;28;24417;-60
2021/11/30 09:09:36;;;;;;;2.50;1.70;;;;;;;;;;4983580;28;25138;-60
2021/11/30 09:12:02;;;;;;;2.20;1.70;;;;;;;;;;4981430;28;24520;-60
2021/11/30 09:14:27;;;;;;;2.20;1.30;;;;;;;;;;4987103;28;24623;-60
2021/11/30 09:16:54;;;;;;;1.20;1.20;;;;;;;;;;4985201;28;25877;-60
2021/11/30 09:19:19;;;;;;;1.70;1.60;;;;;;;;;;4981051;28;24416;-59
2021/11/30 09:21:44;;;;;;;2.20;1.37;;;;;;;;;;4982786;28;24401;-60
2021/11/30 09:24:10;;;;;;;1.80;1.70;;;;;;;;;;4980911;28;24978;-60
2021/11/30 09:26:35;;;;;;;1.00;1.00;;;;;;;;;;4985525;28;24416;-59
2021/11/30 09:29:00;;;;;;;1.40;1.30;;;;;;;;;;4985811;28;24425;-59
2021/11/30 09:31:25;;;;;;;1.40;1.30;;;;;;;;;;4997857;28;24482;-60
2021/11/30 09:33:50;;;;;;;1.48;1.38;;;;;;;;;;4984274;28;24459;-59
2021/11/30 09:36:16;;;;;;;1.20;1.10;;;;;;;;;;4988885;28;24412;-60
2021/11/30 09:38:42;;;;;;;1.88;1.40;;;;;;;;;;4987823;28;25030;-60
2021/11/30 09:41:07;;;;;;;1.20;1.20;;;;;;;;;;4986176;28;24517;-60
2021/11/30 09:43:33;;;;;;;1.10;1.10;;;;;;;;;;4988782;28;24834;-60
2021/11/30 09:46:01;;;;;;;2.30;1.20;;;;;;;;;;4989032;28;24424;-60
2021/11/30 09:48:27;;;;;;;1.17;1.10;;;;;;;;;;5004885;28;24994;-60
2021/11/30 09:50:52;;;;;;;1.00;1.00;;;;;;;;;;4994366;28;24691;-60
2021/11/30 09:53:18;;;;;;;1.00;1.00;;;;;;;;;;4985271;28;24654;-61
2021/11/30 09:55:46;;;;;;;1.17;1.07;;;;;;;;;;4980954;28;24516;-60
2021/11/30 09:58:12;;;;;;;1.52;1.10;;;;;;;;;;4983115;28;24401;-60
2021/11/30 10:00:37;;;;;;;1.43;1.20;;;;;;;;;;4986034;28;25385;-60
2021/11/30 10:03:03;;;;;;;0.90;0.90;;;;;;;;;;4986561;28;24467;-60
2021/11/30 10:05:29;;;;;;;1.00;0.90;;;;;;;;;;4985654;28;24401;-60
2021/11/30 10:07:55;;;;;;;1.00;0.90;;;;;;;;;;4982704;28;24440;-60
2021/11/30 10:10:22;;;;;;;1.30;0.90;;;;;;;;;;4978323;28;24831;-60
2021/11/30 10:13:07;;;;;;;1.00;0.90;;;;;;;;;;4984560;28;24550;-60
2021/11/30 10:15:47;;;;;;;1.30;1.10;;;;;;;;;;4978901;28;25052;-60
2021/11/30 10:18:20;;;;;;;7.90;3.95;;;;;;;;;;4978898;28;24983;-60
2021/11/30 10:20:46;;;;;;;3.10;2.38;;;;;;;;;;4978795;28;24445;-61
2021/11/30 10:23:12;;;;;;;2.42;1.92;;;;;;;;;;4989891;28;24416;-60
2021/11/30 10:25:40;;;;;;;1.20;1.10;;;;;;;;;;4989305;28;24813;-61
2021/11/30 10:28:08;;;;;;;2.10;1.80;;;;;;;;;;4985069;28;24487;-61
2021/11/30 10:30:34;;;;;;;2.60;2.10;;;;;;;;;;4985437;28;24417;-61
2021/11/30 10:33:04;;;;;;;1.77;1.67;;;;;;;;;;4982301;28;24464;-61
2021/11/30 10:35:30;;;;;;;3.47;2.75;;;;;;;;;;4971193;28;24409;-61
2021/11/30 10:37:56;;;;;;;4.93;3.80;;;;;;;;;;4979029;28;24983;-61
2021/11/30 10:40:22;;;;;;;1.52;1.42;;;;;;;;;;4983581;28;24491;-61
2021/11/30 10:42:49;;;;;;;2.72;2.10;;;;;;;;;;4976929;28;24499;-61
2021/11/30 10:45:43;;;;;;;1.48;1.38;;;;;;;;;;4979482;28;24737;-61
2021/11/30 10:48:14;;;;;;;7.57;5.28;;;;;;;;;;4975864;28;24806;-61
2021/11/30 10:50:40;;;;;;;4.30;2.83;;;;;;;;;;4981472;28;24837;-61
2021/11/30 10:53:16;;;;;;;2.45;1.90;;;;;;;;;;4982381;28;24547;-61
2021/11/30 10:55:45;;;;;;;1.55;1.25;;;;;;;;;;4981837;28;24457;-61
2021/11/30 10:58:10;;;;;;;2.30;2.10;;;;;;;;;;4976497;28;24413;-61
2021/11/30 11:00:36;;;;;;;2.40;1.60;;;;;;;;;;4976406;28;24436;-61
2021/11/30 11:03:10;;;;;;;0.82;0.82;;;;;;;;;;4981010;28;24409;-61
2021/11/30 11:05:37;;;;;;;1.70;1.60;;;;;;;;;;4982279;28;24405;-62
2021/11/30 11:08:07;;;;;;;2.10;2.00;;;;;;;;;;4987325;28;24504;-61
2021/11/30 11:10:33;;;;;;;1.95;1.80;;;;;;;;;;4984563;28;24827;-61
2021/11/30 11:13:17;;;;;;;1.40;1.30;;;;;;;;;;4978597;28;24436;-62
2021/11/30 11:15:42;;;;;;;1.00;1.00;;;;;;;;;;4959854;28;24955;-59
2021/11/30 11:18:28;;;;;;;0.90;0.90;;;;;;;;;;4980092;28;24452;-60
2021/11/30 11:21:08;;;;;;;1.60;1.50;;;;;;;;;;4984332;28;24444;-59
2021/11/30 11:23:34;;;;;;;3.10;1.52;;;;;;;;;;4983947;28;24419;-60
2021/11/30 11:26:12;;;;;;;2.90;2.00;;;;;;;;;;4982344;28;24504;-61
2021/11/30 11:28:38;;;;;;;2.97;2.45;;;;;;;;;;4980179;28;24509;-59
2021/11/30 11:31:03;;;;;;;2.15;1.52;;;;;;;;;;4984403;28;24437;-59
2021/11/30 11:33:28;;;;;;;1.30;1.10;;;;;;;;;;4982124;28;25012;-60
2021/11/30 11:35:53;;;;;;;1.80;1.30;;;;;;;;;;4978495;28;24464;-60
2021/11/30 11:38:19;;;;;;;1.00;1.00;;;;;;;;;;4979198;28;24824;-60
2021/11/30 11:40:44;;;;;;;1.80;1.10;;;;;;;;;;4978476;28;24475;-59
2021/11/30 11:43:10;;;;;;;2.00;1.30;;;;;;;;;;4981635;28;24483;-59
2021/11/30 11:45:35;;;;;;;1.00;0.80;;;;;;;;;;4977751;28;24979;-59
2021/11/30 11:48:05;;;;;;;1.23;1.00;;;;;;;;;;4983598;28;24428;-59
2021/11/30 11:50:38;;;;;;;1.40;1.30;;;;;;;;;;4983976;28;24526;-60
2021/11/30 11:53:19;;;;;;;0.80;0.80;;;;;;;;;;4978867;28;24552;-60
2021/11/30 11:56:04;;;;;;;1.00;0.90;;;;;;;;;;4979460;28;24793;-61
2021/11/30 11:58:30;;;;;;;0.70;0.70;;;;;;;;;;4981394;28;24460;-61
2021/11/30 12:00:58;;;;;;;1.75;0.70;;;;;;;;;;4980477;28;24445;-60
2021/11/30 12:03:43;;;;;;;0.90;0.80;;;;;;;;;;4982804;28;24891;-60
2021/11/30 12:06:15;;;;;;;0.70;0.70;;;;;;;;;;4980089;28;24512;-61
2021/11/30 12:09:00;;;;;;;1.00;0.70;;;;;;;;;;4980698;28;24540;-61
2021/11/30 12:11:39;;;;;;;0.65;0.65;;;;;;;;;;4983131;28;24418;-61
2021/11/30 12:14:14;;;;;;;0.80;0.80;;;;;;;;;;4984518;28;25100;-61
2021/11/30 12:16:57;;;;;;;0.57;0.52;;;;;;;;;;4979734;28;25000;-60
2021/11/30 12:19:24;;;;;;;0.80;0.80;;;;;;;;;;4959733;28;24468;-60
2021/11/30 12:21:49;;;;;;;1.02;0.65;;;;;;;;;;4982116;28;24533;-60
2021/11/30 12:24:29;;;;;;;0.50;0.50;;;;;;;;;;4984690;28;24528;-61
2021/11/30 12:26:55;;;;;;;1.20;0.60;;;;;;;;;;4978127;28;24433;-60
2021/11/30 12:29:24;;;;;;;0.70;0.70;;;;;;;;;;4980893;28;24420;-61
2021/11/30 12:31:51;;;;;;;0.80;0.70;;;;;;;;;;4979851;28;24436;-61
2021/11/30 12:34:35;;;;;;;0.60;0.60;;;;;;;;;;4987733;28;24571;-61
2021/11/30 12:37:07;;;;;;;0.70;0.70;;;;;;;;;;4981664;28;24401;-61
2021/11/30 12:39:51;;;;;;;0.80;0.80;;;;;;;;;;4973345;28;24857;-61
2021/11/30 12:42:16;;;;;;;1.00;0.60;;;;;;;;;;4982810;28;24420;-61
2021/11/30 12:44:42;;;;;;;0.70;0.60;;;;;;;;;;4976458;28;24484;-61
2021/11/30 12:47:18;;;;;;;0.70;0.70;;;;;;;;;;4980593;28;24413;-61
2021/11/30 12:49:44;;;;;;;0.70;0.60;;;;;;;;;;5000749;28;24466;-60
2021/11/30 12:52:09;;;;;;;1.00;0.60;;;;;;;;;;5000641;28;24433;-60
2021/11/30 12:54:39;;;;;;;0.70;0.70;;;;;;;;;;4976367;28;24453;-61
2021/11/30 12:57:05;;;;;;;0.60;0.60;;;;;;;;;;4977936;28;24432;-61
2021/11/30 12:59:36;;;;;;;0.77;0.60;;;;;;;;;;4977740;28;24757;-60
2021/11/30 13:02:10;;;;;;;0.85;0.77;;;;;;;;;;4979125;28;24416;-60
2021/11/30 13:04:36;;;;;;;0.80;0.73;;;;;;;;;;4982550;28;24524;-60
2021/11/30 13:07:01;;;;;;;0.70;0.70;;;;;;;;;;4986062;28;24512;-62
2021/11/30 13:09:35;;;;;;;0.70;0.67;;;;;;;;;;4984554;28;24449;-60
2021/11/30 13:12:01;;;;;;;0.75;0.75;;;;;;;;;;4981972;28;24425;-60
2021/11/30 13:14:26;;;;;;;0.77;0.77;;;;;;;;;;4980955;28;24433;-61
2021/11/30 13:16:51;;;;;;;1.00;0.90;;;;;;;;;;4981918;28;24986;-60
2021/11/30 13:19:16;;;;;;;0.80;0.80;;;;;;;;;;4985910;28;24413;-60
2021/11/30 13:21:42;;;;;;;0.80;0.77;;;;;;;;;;4980416;28;24475;-60
2021/11/30 13:24:08;;;;;;;0.70;0.70;;;;;;;;;;4980649;28;24437;-60
2021/11/30 13:26:34;;;;;;;0.70;0.70;;;;;;;;;;4984349;28;24549;-61
2021/11/30 13:29:00;;;;;;;0.80;0.80;;;;;;;;;;4986146;28;24568;-61
2021/11/30 13:31:25;;;;;;;1.20;0.80;;;;;;;;;;4986521;28;25026;-60
2021/11/30 13:33:51;;;;;;;1.10;0.70;;;;;;;;;;4984368;28;24531;-60
2021/11/30 13:36:16;;;;;;;1.08;0.80;;;;;;;;;;4984194;28;24540;-60
2021/11/30 13:38:43;;;;;;;0.60;0.60;;;;;;;;;;4982224;28;24745;-61
2021/11/30 13:41:10;;;;;;;0.70;0.70;;;;;;;;;;4986182;28;24765;-60
2021/11/30 13:43:39;;;;;;;1.00;0.80;;;;;;;;;;4985914;28;24424;-60
2021/11/30 13:46:05;;;;;;;0.93;0.80;;;;;;;;;;4984371;28;24424;-60
2021/11/30 13:48:32;;;;;;;0.70;0.70;;;;;;;;;;4985832;28;24464;-60
2021/11/30 13:50:58;;;;;;;1.07;1.00;;;;;;;;;;4977774;28;25468;-60
2021/11/30 13:53:25;;;;;;;1.17;1.08;;;;;;;;;;4987321;28;24452;-60
2021/11/30 13:55:54;;;;;;;0.90;0.90;;;;;;;;;;4981706;28;24428;-61
2021/11/30 13:58:32;;;;;;;0.80;0.80;;;;;;;;;;4994550;28;24983;-61
2021/11/30 14:01:10;;;;;;;0.80;0.80;;;;;;;;;;4993774;28;24432;-61
2021/11/30 14:03:40;;;;;;;0.60;0.60;;;;;;;;;;4979880;28;24425;-61
2021/11/30 14:06:19;;;;;;;0.90;0.90;;;;;;;;;;4970855;28;24966;-61
2021/11/30 14:08:44;;;;;;;2.20;2.00;;;;;;;;;;4982556;28;24842;-61
2021/11/30 14:11:12;;;;;;;0.90;0.90;;;;;;;;;;4985425;28;24982;-60
2021/11/30 14:13:37;;;;;;;1.00;1.00;;;;;;;;;;4983962;28;24444;-61
2021/11/30 14:16:03;;;;;;;2.70;2.50;;;;;;;;;;4980355;28;24417;-61
2021/11/30 14:18:28;;;;;;;1.60;1.50;;;;;;;;;;4982142;28;24400;-61
2021/11/30 14:20:53;;;;;;;2.85;2.30;;;;;;;;;;4987275;28;24508;-61
2021/11/30 14:23:19;;;;;;;4.07;3.67;;;;;;;;;;4984477;28;24412;-61
2021/11/30 14:25:44;;;;;;;4.80;3.83;;;;;;;;;;4984400;28;24492;-61
2021/11/30 14:28:13;;;;;;;5.13;4.63;;;;;;;;;;4973935;28;24543;-61
2021/11/30 14:30:39;;;;;;;1.63;1.53;;;;;;;;;;4977351;28;24423;-61
2021/11/30 14:33:04;;;;;;;7.72;5.43;;;;;;;;;;4988109;28;24770;-61
2021/11/30 14:35:41;;;;;;;7.10;5.20;;;;;;;;;;4984028;28;24776;-61
2021/11/30 14:38:08;;;;;;;6.13;4.47;;;;;;;;;;4984386;28;24869;-61
2021/11/30 14:40:38;;;;;;;2.70;2.43;;;;;;;;;;4985124;28;24459;-61
2021/11/30 14:43:15;;;;;;;2.30;1.70;;;;;;;;;;4985624;28;24440;-60
2021/11/30 14:45:44;;;;;;;1.40;1.30;;;;;;;;;;4984415;28;24511;-61
2021/11/30 14:48:17;;;;;;;1.20;1.10;;;;;;;;;;4986300;28;24425;-60
2021/11/30 14:50:47;;;;;;;1.13;1.02;;;;;;;;;;4984490;28;24476;-61